Time;durP1;ratioP1;P1;durP2;ratioP2;P2;SDS_P1;SDS_P2;PMS_P1;PMS_P2;Temp;Humidity;BMP_temperature;BMP_pressure;BME280_temperature;BME280_humidity;BME280_pressure;Samples;Min_cycle;Max_cycle;Signal;HPM_P1;HPM_P2
2021/04/13 00:02:49;;;;;;;6.35;4.25;;;4.30;99.90;;;;;;5075288;28;20274;-79
2021/04/13 00:05:29;;;;;;;6.28;4.10;;;4.40;99.90;;;;;;5033210;28;20237;-78
2021/04/13 00:07:57;;;;;;;6.68;4.10;;;4.30;99.90;;;;;;5060605;28;20764;-79
2021/04/13 00:10:30;;;;;;;5.10;3.55;;;4.10;99.90;;;;;;5075154;28;20206;-78
2021/04/13 00:12:57;;;;;;;6.13;4.25;;;4.10;99.90;;;;;;5074272;28;20273;-79
2021/04/13 00:15:28;;;;;;;5.80;4.00;;;4.00;99.90;;;;;;5073824;28;20735;-79
2021/04/13 00:17:57;;;;;;;6.68;4.07;;;4.10;99.90;;;;;;5072758;28;20238;-79
2021/04/13 00:20:31;;;;;;;7.60;3.88;;;4.00;99.90;;;;;;5074455;28;20201;-79
2021/04/13 00:22:58;;;;;;;5.45;3.63;;;4.10;99.90;;;;;;5074628;28;20304;-79
2021/04/13 00:25:28;;;;;;;5.97;3.83;;;4.20;99.90;;;;;;5073588;28;20230;-80
2021/04/13 00:27:54;;;;;;;6.05;3.70;;;3.90;99.90;;;;;;5072859;28;20210;-79
2021/04/13 00:30:26;;;;;;;5.00;3.15;;;4.00;99.90;;;;;;5073246;28;20201;-79
2021/04/13 00:32:58;;;;;;;5.85;3.70;;;4.10;99.90;;;;;;5072896;28;20286;-79
2021/04/13 00:35:30;;;;;;;6.43;4.28;;;3.90;99.90;;;;;;5053630;28;20393;-79
2021/04/13 00:38:28;;;;;;;4.90;3.63;;;3.90;99.90;;;;;;5064504;28;20667;-79
2021/04/13 00:40:56;;;;;;;7.63;4.38;;;4.10;99.90;;;;;;5072136;28;20225;-80
2021/04/13 00:43:26;;;;;;;7.93;3.85;;;4.00;99.90;;;;;;5073966;28;20226;-79
2021/04/13 00:45:54;;;;;;;7.80;4.40;;;4.20;99.90;;;;;;5068650;28;20241;-79
2021/04/13 00:48:26;;;;;;;6.15;3.50;;;4.30;99.90;;;;;;5057353;28;20309;-79
2021/04/13 00:51:00;;;;;;;6.15;3.88;;;4.10;99.90;;;;;;5060292;28;20213;-79
2021/04/13 00:53:31;;;;;;;6.93;3.60;;;4.20;99.90;;;;;;5078129;28;20273;-78
2021/04/13 00:55:59;;;;;;;5.68;3.20;;;4.00;99.90;;;;;;5078292;28;20260;-79
2021/04/13 00:58:31;;;;;;;5.30;3.30;;;4.00;99.90;;;;;;5075881;28;20212;-79
2021/04/13 01:01:01;;;;;;;7.28;4.78;;;4.20;99.90;;;;;;5076432;28;20701;-79
2021/04/13 01:03:29;;;;;;;8.70;3.80;;;4.20;99.90;;;;;;5074660;28;20645;-79
2021/04/13 01:05:58;;;;;;;5.50;3.65;;;4.10;99.90;;;;;;5071348;28;20229;-79
2021/04/13 01:08:33;;;;;;;6.07;4.00;;;3.90;99.90;;;;;;5053241;28;20294;-78
2021/04/13 01:11:06;;;;;;;6.28;4.38;;;4.10;99.90;;;;;;5071985;28;20284;-79
2021/04/13 01:13:41;;;;;;;5.13;3.83;;;4.00;99.90;;;;;;5071352;28;20274;-79
2021/04/13 01:16:08;;;;;;;7.30;4.20;;;4.10;99.90;;;;;;5072485;28;20233;-78
2021/04/13 01:18:37;;;;;;;7.72;4.70;;;4.10;99.90;;;;;;5071567;28;20307;-78
2021/04/13 01:21:23;;;;;;;5.80;3.40;;;4.00;99.90;;;;;;5075486;28;20668;-79
2021/04/13 01:23:54;;;;;;;7.05;4.50;;;4.20;99.90;;;;;;5075012;28;20222;-79
2021/04/13 01:26:21;;;;;;;7.88;4.57;;;4.10;99.90;;;;;;5074842;28;20217;-79
2021/04/13 01:28:51;;;;;;;6.13;4.22;;;4.10;99.90;;;;;;5073069;28;20201;-79
2021/04/13 01:34:06;;;;;;;6.65;4.80;;;4.00;99.90;;;;;;5072962;28;20197;-79
2021/04/13 01:36:34;;;;;;;6.32;4.50;;;4.00;99.90;;;;;;5072609;28;20229;-78
2021/04/13 01:39:07;;;;;;;6.13;3.90;;;4.10;99.90;;;;;;5070107;28;20714;-79
2021/04/13 01:41:57;;;;;;;9.30;4.40;;;4.10;99.90;;;;;;5074022;28;20217;-79
2021/04/13 01:44:27;;;;;;;7.18;4.00;;;4.00;99.90;;;;;;5073535;28;20245;-79
2021/04/13 01:46:54;;;;;;;7.05;4.35;;;4.20;99.90;;;;;;5066816;28;20272;-79
2021/04/13 01:49:21;;;;;;;6.95;4.60;;;4.10;99.90;;;;;;5074401;28;20209;-78
2021/04/13 01:51:48;;;;;;;7.57;4.70;;;4.20;99.90;;;;;;5072682;28;20202;-78
2021/04/13 01:54:16;;;;;;;6.40;4.20;;;4.00;99.90;;;;;;5070502;28;20269;-78
2021/04/13 01:56:59;;;;;;;6.97;4.35;;;4.00;99.90;;;;;;5070956;28;20736;-79
2021/04/13 01:59:34;;;;;;;7.05;4.45;;;4.10;99.90;;;;;;5071419;28;20617;-78
2021/04/13 02:02:06;;;;;;;9.20;4.40;;;4.10;99.90;;;;;;5065733;28;20304;-78
2021/04/13 02:04:49;;;;;;;7.80;4.43;;;3.70;99.90;;;;;;5071219;28;20234;-78
2021/04/13 02:07:31;;;;;;;5.60;3.90;;;3.90;99.90;;;;;;5074723;28;20206;-78
2021/04/13 02:10:06;;;;;;;8.48;4.15;;;4.00;99.90;;;;;;5075616;28;20680;-80
2021/04/13 02:12:38;;;;;;;7.63;4.13;;;3.80;99.90;;;;;;5070451;28;20185;-80
2021/04/13 02:15:11;;;;;;;6.65;4.32;;;3.90;99.90;;;;;;5054727;28;20217;-79
2021/04/13 02:17:41;;;;;;;6.00;4.00;;;3.80;99.90;;;;;;5071844;28;20857;-79
2021/04/13 02:20:11;;;;;;;7.65;4.43;;;3.70;99.90;;;;;;5074194;28;20431;-79
2021/04/13 02:22:44;;;;;;;9.38;4.65;;;3.70;99.90;;;;;;5073300;28;20292;-80
2021/04/13 02:25:14;;;;;;;6.57;4.40;;;3.50;99.90;;;;;;5073498;28;20703;-79
2021/04/13 02:27:42;;;;;;;7.68;4.50;;;3.60;99.90;;;;;;5061646;28;20209;-80
2021/04/13 02:30:12;;;;;;;6.43;4.50;;;3.80;99.90;;;;;;5075966;28;20636;-79
2021/04/13 02:32:44;;;;;;;7.53;4.82;;;3.60;99.90;;;;;;5076397;28;20229;-79
2021/04/13 02:35:17;;;;;;;7.53;4.32;;;3.60;99.90;;;;;;5075923;28;20289;-79
2021/04/13 02:37:47;;;;;;;7.38;4.93;;;3.70;99.90;;;;;;5078328;28;20209;-80
2021/04/13 02:40:18;;;;;;;7.07;5.15;;;3.70;99.90;;;;;;5075748;28;20312;-79
2021/04/13 02:42:46;;;;;;;6.72;4.40;;;3.80;99.90;;;;;;5071259;28;20608;-80
2021/04/13 02:45:25;;;;;;;6.70;4.38;;;3.60;99.90;;;;;;5079540;28;20309;-79
2021/04/13 02:47:57;;;;;;;7.00;4.65;;;3.60;99.90;;;;;;5073660;28;20297;-79
2021/04/13 02:50:25;;;;;;;6.20;4.35;;;3.50;99.90;;;;;;5061120;28;20206;-80
2021/04/13 02:52:54;;;;;;;7.50;5.05;;;3.50;99.90;;;;;;5084173;28;20202;-79
2021/04/13 02:55:25;;;;;;;6.97;4.50;;;3.70;99.90;;;;;;5082129;28;20726;-80
2021/04/13 02:57:54;;;;;;;6.75;4.70;;;3.50;99.90;;;;;;5080972;28;20226;-80
2021/04/13 03:00:25;;;;;;;6.80;4.82;;;3.50;99.90;;;;;;5080376;28;20217;-80
2021/04/13 03:02:56;;;;;;;6.93;4.35;;;3.60;99.90;;;;;;5080208;28;20304;-79
2021/04/13 03:05:25;;;;;;;10.27;5.55;;;3.40;99.90;;;;;;5078819;28;20319;-79
2021/04/13 03:07:52;;;;;;;6.85;4.85;;;3.70;99.90;;;;;;5076560;28;20292;-80
2021/04/13 03:10:25;;;;;;;9.10;5.50;;;3.50;99.90;;;;;;5076518;28;20206;-80
2021/04/13 03:12:54;;;;;;;8.52;5.60;;;3.50;99.90;;;;;;5076549;28;20210;-80
2021/04/13 03:15:23;;;;;;;6.50;4.65;;;3.70;99.90;;;;;;5076518;28;20265;-80
2021/04/13 03:17:54;;;;;;;8.27;4.47;;;3.40;99.90;;;;;;5075567;28;20289;-80
2021/04/13 03:20:23;;;;;;;8.82;5.30;;;3.40;99.90;;;;;;5071418;28;20289;-80
2021/04/13 03:22:51;;;;;;;5.57;4.15;;;3.60;99.90;;;;;;5067130;28;20354;-80
2021/04/13 03:25:19;;;;;;;7.82;5.45;;;3.60;99.90;;;;;;5075737;28;20222;-80
2021/04/13 03:27:47;;;;;;;7.47;5.13;;;3.70;99.90;;;;;;5075661;28;20355;-80
2021/04/13 03:30:18;;;;;;;7.45;4.38;;;3.60;99.90;;;;;;5075768;28;20228;-80
2021/04/13 03:32:51;;;;;;;8.45;5.55;;;3.60;99.90;;;;;;5075189;28;20232;-80
2021/04/13 03:35:20;;;;;;;7.68;5.50;;;3.50;99.90;;;;;;5074379;28;20222;-80
2021/04/13 03:37:49;;;;;;;8.02;4.88;;;3.40;99.90;;;;;;5075417;28;20262;-80
2021/04/13 03:40:18;;;;;;;9.73;5.50;;;3.70;99.90;;;;;;5074636;28;20652;-80
2021/04/13 03:42:46;;;;;;;9.68;5.30;;;3.40;99.90;;;;;;5074613;28;20237;-80
2021/04/13 03:45:16;;;;;;;7.03;4.60;;;3.40;99.90;;;;;;5074707;28;20712;-80
2021/04/13 03:47:46;;;;;;;9.48;5.50;;;3.60;99.90;;;;;;5071796;28;20202;-79
2021/04/13 03:50:22;;;;;;;8.05;4.82;;;3.60;99.90;;;;;;5055314;22;20255;-86
2021/04/13 03:53:01;;;;;;;6.93;5.07;;;3.60;99.90;;;;;;5030069;28;20200;-88
2021/04/13 03:55:27;;;;;;;7.07;4.90;;;3.70;99.90;;;;;;5029526;28;20184;-89
2021/04/13 03:57:55;;;;;;;7.18;4.20;;;3.60;99.90;;;;;;5020848;28;20205;-89
2021/04/13 04:00:27;;;;;;;7.40;5.80;;;3.50;99.90;;;;;;5019078;28;20281;-89
2021/04/13 04:02:54;;;;;;;8.20;5.20;;;3.70;99.90;;;;;;5028112;28;20225;-89
2021/04/13 04:05:23;;;;;;;8.57;5.45;;;3.60;99.90;;;;;;5025141;28;20287;-89
2021/04/13 04:07:54;;;;;;;7.60;5.15;;;3.30;99.90;;;;;;5020824;28;20704;-87
2021/04/13 04:10:33;;;;;;;6.90;4.78;;;3.50;99.90;;;;;;4999089;28;20228;-87
2021/04/13 04:13:02;;;;;;;7.18;5.20;;;3.40;99.90;;;;;;5014574;28;20200;-87
2021/04/13 04:15:37;;;;;;;7.88;4.75;;;3.60;99.90;;;;;;5019806;28;20256;-87
2021/04/13 04:18:12;;;;;;;7.05;4.95;;;3.30;99.90;;;;;;5018695;28;20219;-87
2021/04/13 04:20:38;;;;;;;9.02;5.75;;;3.30;99.90;;;;;;5017553;28;20302;-87
2021/04/13 04:23:05;;;;;;;8.80;4.95;;;3.10;99.90;;;;;;5017136;28;20277;-87
2021/04/13 04:25:36;;;;;;;8.98;4.85;;;3.30;99.90;;;;;;5011216;28;20220;-86
2021/04/13 04:28:11;;;;;;;10.52;5.10;;;3.30;99.90;;;;;;5015829;28;20223;-87
2021/04/13 04:30:38;;;;;;;8.18;5.10;;;3.30;99.90;;;;;;5016031;28;20254;-87
2021/04/13 04:33:05;;;;;;;8.50;6.05;;;3.20;99.90;;;;;;5016942;28;20561;-87
2021/04/13 04:35:38;;;;;;;7.97;6.10;;;3.30;99.90;;;;;;5018144;28;20258;-87
2021/04/13 04:38:08;;;;;;;7.15;4.90;;;3.10;99.90;;;;;;5016414;28;20273;-87
2021/04/13 04:40:39;;;;;;;8.05;5.40;;;3.30;99.90;;;;;;5022089;28;20228;-89
2021/04/13 04:43:12;;;;;;;8.30;5.45;;;3.30;99.90;;;;;;5023357;28;20247;-88
2021/04/13 04:45:50;;;;;;;10.55;5.90;;;3.00;99.90;;;;;;5022554;28;20226;-89
2021/04/13 04:48:23;;;;;;;10.50;5.97;;;3.10;99.90;;;;;;5024535;28;20446;-88
2021/04/13 04:50:50;;;;;;;10.27;5.53;;;3.30;99.90;;;;;;5024705;28;20322;-89
2021/04/13 04:53:18;;;;;;;7.80;5.60;;;3.20;99.90;;;;;;5005383;28;20204;-85
2021/04/13 04:55:48;;;;;;;7.53;5.05;;;3.10;99.90;;;;;;5007430;28;20212;-89
2021/04/13 04:58:15;;;;;;;10.48;6.00;;;3.10;99.90;;;;;;5031068;28;20227;-86
2021/04/13 05:00:42;;;;;;;7.03;5.38;;;3.20;99.90;;;;;;5024254;28;20224;-88
2021/04/13 05:03:08;;;;;;;8.55;6.25;;;3.30;99.90;;;;;;5024211;28;20228;-89
2021/04/13 05:05:35;;;;;;;9.38;6.07;;;3.40;99.90;;;;;;5022508;28;20235;-88
2021/04/13 05:08:02;;;;;;;8.52;5.70;;;3.40;99.90;;;;;;5021766;28;20683;-90
2021/04/13 05:10:28;;;;;;;10.55;6.70;;;3.20;99.90;;;;;;5021743;28;20878;-89
2021/04/13 05:12:55;;;;;;;8.88;6.40;;;3.10;99.90;;;;;;5021048;28;20299;-89
2021/04/13 05:15:22;;;;;;;9.20;5.97;;;3.00;99.90;;;;;;5021673;28;20240;-89
2021/04/13 05:17:50;;;;;;;10.38;6.32;;;3.30;99.90;;;;;;5022453;28;20282;-89
2021/04/13 05:20:16;;;;;;;11.15;6.82;;;3.20;99.90;;;;;;5005770;28;20232;-88
2021/04/13 05:22:43;;;;;;;13.02;6.28;;;3.30;99.90;;;;;;5002150;28;20208;-88
2021/04/13 05:25:12;;;;;;;10.95;7.18;;;3.10;99.90;;;;;;5010406;28;20211;-89
2021/04/13 05:27:38;;;;;;;9.40;6.15;;;3.00;99.90;;;;;;5024488;28;20238;-87
2021/04/13 05:30:07;;;;;;;12.75;7.35;;;3.20;99.90;;;;;;5022557;28;20223;-89
2021/04/13 05:32:34;;;;;;;11.23;6.53;;;3.30;99.90;;;;;;5023757;28;20207;-89
2021/04/13 05:35:01;;;;;;;9.43;5.90;;;3.20;99.90;;;;;;5025298;28;20273;-88
2021/04/13 05:37:28;;;;;;;11.18;6.00;;;3.40;99.90;;;;;;5025032;28;20231;-87
2021/04/13 05:39:55;;;;;;;8.48;6.22;;;3.60;99.90;;;;;;5026543;28;20259;-88
2021/04/13 05:42:26;;;;;;;12.60;6.60;;;3.40;99.90;;;;;;5027743;28;20246;-89
2021/04/13 05:44:53;;;;;;;12.20;8.65;;;3.80;99.90;;;;;;5028803;28;20228;-88
2021/04/13 05:47:20;;;;;;;11.27;5.78;;;3.40;99.90;;;;;;5025405;28;20231;-90
2021/04/13 05:49:47;;;;;;;13.68;7.40;;;3.50;99.90;;;;;;5024706;28;20267;-88
2021/04/13 05:52:14;;;;;;;11.32;6.80;;;3.80;99.90;;;;;;5014726;28;20204;-87
2021/04/13 05:54:40;;;;;;;10.55;7.80;;;3.80;99.90;;;;;;5001657;28;20204;-89
2021/04/13 05:57:09;;;;;;;13.75;6.97;;;3.70;99.90;;;;;;5001444;28;20204;-89
2021/04/13 05:59:36;;;;;;;11.95;7.88;;;4.00;99.90;;;;;;5013703;28;20259;-88
2021/04/13 06:02:04;;;;;;;10.52;7.00;;;4.00;99.90;;;;;;5021975;28;20298;-86
2021/04/13 06:04:31;;;;;;;10.15;7.63;;;4.00;99.90;;;;;;5021522;28;20223;-87
2021/04/13 06:06:58;;;;;;;15.48;7.65;;;4.30;99.90;;;;;;5021910;28;20200;-86
2021/04/13 06:09:24;;;;;;;11.60;7.20;;;4.10;99.90;;;;;;5016295;28;20223;-88
2021/04/13 06:11:51;;;;;;;14.07;8.00;;;4.30;99.90;;;;;;5016161;28;20200;-87
2021/04/13 06:14:21;;;;;;;13.23;8.63;;;4.30;99.90;;;;;;5016836;28;20227;-87
2021/04/13 06:16:49;;;;;;;17.55;8.20;;;4.20;99.90;;;;;;5018265;28;20682;-88
2021/04/13 06:19:15;;;;;;;13.57;9.18;;;4.30;99.90;;;;;;5018282;28;20266;-87
2021/04/13 06:21:42;;;;;;;12.70;8.45;;;4.40;99.90;;;;;;5018357;28;20204;-88
2021/04/13 06:24:10;;;;;;;12.20;9.00;;;4.70;99.90;;;;;;5027412;28;20246;-87
2021/04/13 06:26:37;;;;;;;11.68;9.38;;;4.50;99.90;;;;;;5032301;28;20208;-86
2021/04/13 06:29:03;;;;;;;16.20;8.55;;;4.70;99.90;;;;;;5021402;28;20227;-88
2021/04/13 06:31:30;;;;;;;14.35;7.93;;;4.90;99.90;;;;;;5019537;28;20340;-87
2021/04/13 06:33:56;;;;;;;14.07;8.02;;;5.00;99.90;;;;;;5020847;28;20596;-86
2021/04/13 06:36:25;;;;;;;12.55;8.48;;;4.80;99.90;;;;;;5031351;28;20659;-86
2021/04/13 06:38:53;;;;;;;12.88;7.38;;;5.20;99.90;;;;;;5033050;28;20243;-87
2021/04/13 06:41:42;;;;;;;12.65;7.80;;;4.90;99.90;;;;;;5029955;28;20283;-86
2021/04/13 06:44:45;;;;;;;13.27;8.00;;;5.00;99.90;;;;;;5013328;28;20286;-88
2021/04/13 06:47:20;;;;;;;15.68;9.48;;;5.20;99.90;;;;;;5016099;28;20805;-82
2021/04/13 06:50:04;;;;;;;12.48;8.65;;;5.20;99.90;;;;;;5015985;28;20318;-82
2021/04/13 06:52:44;;;;;;;32.97;11.35;;;5.20;99.90;;;;;;5017110;28;20211;-81
2021/04/13 06:55:21;;;;;;;14.30;9.30;;;5.40;99.90;;;;;;5016940;28;20214;-82
2021/04/13 06:58:14;;;;;;;12.18;7.97;;;5.00;99.90;;;;;;5007388;28;20196;-81
2021/04/13 07:00:56;;;;;;;7.85;5.05;;;5.40;99.90;;;;;;5002378;28;20809;-82
2021/04/13 07:03:30;;;;;;;21.98;9.85;;;4.90;99.90;;;;;;5020036;28;20254;-81
2021/04/13 07:06:04;;;;;;;13.73;10.40;;;5.00;99.90;;;;;;5020917;28;20581;-86
2021/04/13 07:08:37;;;;;;;12.95;9.63;;;5.10;99.90;;;;;;5021776;28;20200;-89
2021/04/13 07:11:11;;;;;;;10.15;5.90;;;5.00;99.90;;;;;;5022628;28;20185;-89
2021/04/13 07:13:49;;;;;;;15.85;11.13;;;5.20;99.90;;;;;;5024044;28;20235;-85
2021/04/13 07:16:22;;;;;;;11.65;9.48;;;5.30;99.90;;;;;;5012111;28;20216;-88
2021/04/13 07:18:58;;;;;;;12.70;8.30;;;5.50;99.90;;;;;;5033756;28;20226;-84
2021/04/13 07:21:33;;;;;;;22.27;11.55;;;5.80;99.90;;;;;;5005492;28;20242;-88
2021/04/13 07:24:09;;;;;;;16.20;10.02;;;6.00;99.90;;;;;;5007460;28;20231;-87
2021/04/13 07:26:38;;;;;;;14.75;9.35;;;6.10;99.90;;;;;;5000424;28;20276;-87
2021/04/13 07:29:10;;;;;;;15.55;10.27;;;6.40;99.90;;;;;;5000695;28;20235;-87
2021/04/13 07:31:41;;;;;;;14.93;10.95;;;6.40;99.90;;;;;;4999433;28;20581;-87
2021/04/13 07:34:08;;;;;;;13.13;10.77;;;6.50;99.90;;;;;;5003292;28;20807;-83
2021/04/13 07:36:39;;;;;;;13.05;9.25;;;6.30;99.90;;;;;;5025909;28;20239;-83
2021/04/13 07:39:07;;;;;;;15.98;10.63;;;6.40;99.90;;;;;;5013464;28;20248;-83
2021/04/13 07:41:40;;;;;;;16.73;10.77;;;6.50;99.90;;;;;;5019201;28;20246;-86
2021/04/13 07:44:13;;;;;;;13.98;10.48;;;6.20;99.90;;;;;;4999486;28;20228;-85
2021/04/13 07:46:48;;;;;;;12.93;7.85;;;6.20;99.90;;;;;;4999072;28;20205;-87
2021/04/13 07:49:21;;;;;;;14.68;10.30;;;6.40;99.90;;;;;;5007570;28;20718;-86
2021/04/13 07:52:16;;;;;;;13.55;8.82;;;6.00;99.90;;;;;;5018070;28;20798;-87
2021/04/13 07:54:54;;;;;;;12.38;8.23;;;5.90;99.90;;;;;;5018596;28;20253;-86
2021/04/13 07:57:28;;;;;;;18.25;10.98;;;5.70;99.90;;;;;;5023875;28;20226;-86
2021/04/13 08:00:14;;;;;;;12.52;9.90;;;5.70;99.90;;;;;;5035569;28;20335;-82
2021/04/13 08:02:41;;;;;;;22.92;12.20;;;5.70;99.90;;;;;;5020473;28;20227;-84
2021/04/13 08:05:10;;;;;;;16.10;9.93;;;6.10;99.90;;;;;;5020581;28;20232;-84
2021/04/13 08:07:39;;;;;;;15.23;10.10;;;6.10;99.90;;;;;;5020135;28;20204;-82
2021/04/13 08:10:12;;;;;;;15.70;10.45;;;6.10;99.90;;;;;;5019808;28;20258;-84
2021/04/13 08:12:53;;;;;;;16.17;12.15;;;6.20;99.90;;;;;;5023447;28;20199;-81
2021/04/13 08:15:36;;;;;;;15.25;9.63;;;6.40;99.90;;;;;;5017979;28;20350;-82
2021/04/13 08:18:08;;;;;;;18.85;13.10;;;6.40;99.90;;;;;;5018722;28;20211;-85
2021/04/13 08:20:38;;;;;;;17.45;12.10;;;6.30;99.90;;;;;;5019292;28;20295;-83
2021/04/13 08:23:07;;;;;;;13.50;8.88;;;6.30;99.90;;;;;;5019070;28;20295;-82
2021/04/13 08:25:45;;;;;;;12.48;9.60;;;6.40;99.90;;;;;;5017754;28;20230;-83
2021/04/13 08:28:28;;;;;;;14.05;10.40;;;6.40;99.90;;;;;;5017801;28;20251;-81
2021/04/13 08:34:18;;;;;;;12.70;8.93;;;5.80;99.90;;;;;;4973714;28;20201;-82
2021/04/13 08:36:51;;;;;;;11.35;7.90;;;6.00;99.90;;;;;;4997188;28;20212;-82
2021/04/13 08:39:26;;;;;;;11.10;9.07;;;6.20;99.90;;;;;;4997334;28;20229;-82
2021/04/13 08:42:05;;;;;;;12.40;8.85;;;6.00;99.90;;;;;;4998752;28;20606;-82
2021/04/13 08:44:38;;;;;;;10.68;7.95;;;6.20;99.90;;;;;;5017171;28;20295;-83
2021/04/13 08:47:12;;;;;;;15.25;9.95;;;6.40;99.90;;;;;;5018172;28;20211;-83
2021/04/13 08:49:48;;;;;;;18.42;11.90;;;6.30;99.90;;;;;;5017889;28;20309;-81
2021/04/13 08:52:42;;;;;;;12.13;9.52;;;6.30;99.90;;;;;;5011529;28;20236;-87
2021/04/13 08:55:14;;;;;;;17.30;10.90;;;6.60;99.90;;;;;;5001761;28;20242;-87
2021/04/13 08:57:43;;;;;;;14.63;11.15;;;6.90;99.90;;;;;;5004762;28;20452;-83
2021/04/13 09:00:43;;;;;;;12.43;9.75;;;7.10;99.90;;;;;;4999757;28;20626;-83
2021/04/13 09:03:12;;;;;;;13.52;10.25;;;6.90;99.90;;;;;;5003781;28;20308;-87
2021/04/13 09:05:41;;;;;;;16.30;11.10;;;7.20;99.90;;;;;;5002022;28;20204;-86
2021/04/13 09:08:25;;;;;;;14.87;10.17;;;7.10;99.90;;;;;;4999222;28;20208;-87
2021/04/13 09:11:32;;;;;;;12.60;9.80;;;7.00;99.90;;;;;;5004050;28;20486;-87
2021/04/13 09:14:07;;;;;;;13.75;9.45;;;7.10;99.40;;;;;;4947503;29;20241;-84
2021/04/13 09:16:37;;;;;;;12.40;9.30;;;7.00;98.20;;;;;;4991920;28;20737;-84
2021/04/13 09:19:16;;;;;;;16.10;9.98;;;7.20;98.50;;;;;;5005071;28;20590;-85
2021/04/13 09:21:48;;;;;;;10.43;6.85;;;7.50;98.00;;;;;;5020998;28;20255;-85
2021/04/13 09:24:20;;;;;;;10.73;7.80;;;7.80;96.50;;;;;;5024441;28;20239;-85
2021/04/13 09:27:15;;;;;;;13.50;8.75;;;7.40;96.30;;;;;;5020986;28;20474;-85
2021/04/13 09:29:45;;;;;;;11.07;8.70;;;7.40;97.40;;;;;;5021517;28;20821;-85
2021/04/13 09:32:34;;;;;;;11.25;8.15;;;7.20;97.70;;;;;;5020373;28;20228;-85
2021/04/13 09:35:30;;;;;;;9.68;7.05;;;7.00;97.20;;;;;;5021422;28;20328;-86
2021/04/13 09:38:12;;;;;;;9.73;6.72;;;7.20;96.70;;;;;;5021354;28;20692;-83
2021/04/13 09:40:45;;;;;;;10.48;8.38;;;7.00;96.80;;;;;;5020082;28;20270;-87
2021/04/13 09:43:48;;;;;;;12.82;9.43;;;6.90;96.20;;;;;;5021769;28;20204;-85
2021/04/13 09:46:43;;;;;;;9.90;8.13;;;7.00;95.60;;;;;;4990290;28;20208;-84
2021/04/13 09:49:23;;;;;;;7.70;5.88;;;7.20;95.00;;;;;;5016389;28;20773;-85
2021/04/13 09:52:05;;;;;;;13.23;6.40;;;7.10;93.60;;;;;;5036970;22;20241;-86
2021/04/13 09:54:35;;;;;;;11.05;7.35;;;6.80;94.20;;;;;;5039054;28;20703;-87
2021/04/13 09:57:40;;;;;;;13.05;9.50;;;6.80;93.80;;;;;;5039007;28;20221;-84
2021/04/13 10:00:29;;;;;;;10.13;6.50;;;7.00;94.30;;;;;;5044387;28;20210;-88
2021/04/13 10:03:12;;;;;;;9.57;6.85;;;6.70;92.60;;;;;;5026662;28;20619;-86
2021/04/13 10:05:41;;;;;;;11.50;7.03;;;6.80;92.90;;;;;;5041592;28;20282;-87
2021/04/13 10:08:16;;;;;;;11.20;8.35;;;7.00;93.20;;;;;;5024308;28;20196;-85
2021/04/13 10:10:48;;;;;;;11.20;8.57;;;7.20;92.90;;;;;;5019954;28;20203;-86
2021/04/13 10:14:07;;;;;;;10.90;7.55;;;7.50;92.50;;;;;;5020294;28;20458;-85
2021/04/13 10:16:37;;;;;;;8.33;6.23;;;7.80;90.90;;;;;;5015138;28;20259;-88
2021/04/13 10:19:28;;;;;;;9.07;7.07;;;8.00;87.90;;;;;;5014607;28;20463;-87
2021/04/13 10:22:28;;;;;;;20.07;8.53;;;8.50;86.90;;;;;;5023099;28;20705;-86
2021/04/13 10:25:17;;;;;;;9.80;7.18;;;8.50;89.40;;;;;;4988553;28;20538;-86
2021/04/13 10:28:20;;;;;;;8.18;4.25;;;8.00;91.30;;;;;;5008196;28;20216;-84
2021/04/13 10:31:32;;;;;;;10.68;5.20;;;7.70;90.70;;;;;;5018154;28;20214;-83
2021/04/13 10:34:34;;;;;;;9.30;7.30;;;7.40;90.20;;;;;;5016094;28;20209;-83
2021/04/13 10:37:42;;;;;;;11.30;8.45;;;7.30;90.90;;;;;;5004011;28;20215;-86
2021/04/13 10:40:33;;;;;;;12.23;8.00;;;7.30;91.30;;;;;;5006955;28;20232;-85
2021/04/13 10:43:22;;;;;;;10.50;7.15;;;7.50;91.60;;;;;;5008589;28;20296;-85
2021/04/13 10:46:10;;;;;;;9.10;5.15;;;7.50;91.80;;;;;;5007533;28;20236;-85
2021/04/13 10:49:21;;;;;;;11.17;6.57;;;7.60;89.50;;;;;;5046235;28;20200;-84
2021/04/13 10:52:18;;;;;;;9.63;5.60;;;7.80;86.80;;;;;;5039625;28;20490;-84
2021/04/13 10:55:06;;;;;;;11.23;5.80;;;7.70;83.30;;;;;;5029030;28;20442;-87
2021/04/13 10:58:04;;;;;;;9.15;6.38;;;7.80;82.20;;;;;;5021898;28;20220;-87
2021/04/13 11:00:40;;;;;;;7.97;4.97;;;7.50;84.00;;;;;;5033183;28;20219;-83
2021/04/13 11:03:42;;;;;;;11.48;7.45;;;7.80;85.80;;;;;;5033732;28;20233;-80
2021/04/13 11:06:57;;;;;;;5.20;3.25;;;7.80;86.50;;;;;;5009864;28;20215;-82
2021/04/13 11:09:40;;;;;;;11.18;6.57;;;7.80;85.30;;;;;;5040949;28;20210;-80
2021/04/13 11:12:44;;;;;;;8.82;6.40;;;7.90;85.20;;;;;;5046150;28;20574;-82
2021/04/13 11:15:52;;;;;;;8.17;6.30;;;8.20;82.10;;;;;;5043803;28;20293;-82
2021/04/13 11:18:54;;;;;;;8.40;6.60;;;8.50;81.10;;;;;;5045639;28;20456;-84
2021/04/13 11:22:06;;;;;;;10.70;7.67;;;8.70;80.60;;;;;;5036832;28;20508;-82
2021/04/13 11:24:44;;;;;;;9.27;6.95;;;8.70;78.80;;;;;;5014783;28;20479;-84
2021/04/13 11:27:58;;;;;;;9.68;6.82;;;8.70;81.40;;;;;;4999391;28;20267;-84
2021/04/13 11:30:49;;;;;;;7.03;4.43;;;8.90;76.10;;;;;;5020935;28;20618;-83
2021/04/13 11:33:47;;;;;;;7.73;5.67;;;8.30;70.80;;;;;;5013326;28;20204;-82
2021/04/13 11:36:21;;;;;;;7.93;5.80;;;9.00;71.70;;;;;;5016812;28;20479;-82
2021/04/13 11:38:59;;;;;;;8.77;5.33;;;8.90;70.60;;;;;;5026065;28;20945;-86
2021/04/13 11:42:07;;;;;;;7.63;6.13;;;8.80;69.60;;;;;;5002580;28;20486;-85
2021/04/13 11:44:40;;;;;;;6.87;5.30;;;9.10;70.50;;;;;;5002464;28;20944;-82
2021/04/13 11:47:14;;;;;;;9.17;6.07;;;9.10;70.10;;;;;;5012678;28;20493;-82
2021/04/13 11:49:46;;;;;;;8.07;5.67;;;9.30;70.60;;;;;;5020021;28;20529;-79
2021/04/13 11:52:19;;;;;;;25.17;9.13;;;9.40;69.80;;;;;;5019657;28;21059;-81
2021/04/13 11:54:49;;;;;;;7.47;5.07;;;9.40;70.40;;;;;;5017976;28;20474;-81
2021/04/13 11:57:24;;;;;;;8.00;5.70;;;9.30;68.10;;;;;;5023344;28;20446;-80
2021/04/13 12:00:27;;;;;;;5.20;3.30;;;9.10;68.20;;;;;;5035104;28;20470;-80
2021/04/13 12:03:19;;;;;;;8.03;5.13;;;9.20;68.70;;;;;;5002892;28;20490;-82
2021/04/13 12:05:49;;;;;;;8.90;6.63;;;9.30;72.40;;;;;;5003642;28;20430;-81
2021/04/13 12:08:48;;;;;;;5.10;2.37;;;9.20;74.80;;;;;;5001979;28;20467;-81
2021/04/13 12:11:17;;;;;;;7.57;4.57;;;8.90;75.10;;;;;;5024655;28;20534;-80
2021/04/13 12:13:47;;;;;;;8.20;4.00;;;8.70;78.70;;;;;;5027007;28;20548;-81
2021/04/13 12:16:17;;;;;;;9.93;5.27;;;8.30;79.60;;;;;;5029989;28;20215;-79
2021/04/13 12:19:09;;;;;;;7.15;5.25;;;8.70;80.70;;;;;;5029209;28;20429;-80
2021/04/13 12:21:46;;;;;;;9.88;5.38;;;8.60;81.40;;;;;;5030454;28;20322;-83
2021/04/13 12:24:47;;;;;;;7.30;2.87;;;8.70;80.00;;;;;;5028496;28;20561;-81
2021/04/13 12:27:47;;;;;;;8.18;4.25;;;8.50;79.90;;;;;;5031414;28;20446;-82
2021/04/13 12:30:50;;;;;;;14.73;7.03;;;8.50;76.60;;;;;;5005834;28;20212;-82
2021/04/13 12:33:53;;;;;;;6.17;3.33;;;8.70;75.50;;;;;;5006345;28;20541;-81
2021/04/13 12:36:47;;;;;;;8.13;5.30;;;8.90;72.40;;;;;;5009246;28;20980;-80
2021/04/13 12:39:44;;;;;;;7.73;5.07;;;9.10;70.80;;;;;;5027180;28;20489;-81
2021/04/13 12:42:40;;;;;;;4.97;3.47;;;9.10;70.60;;;;;;5017530;28;20474;-80
2021/04/13 12:45:46;;;;;;;5.43;2.70;;;9.30;71.00;;;;;;5003264;28;20598;-83
2021/04/13 12:48:41;;;;;;;7.67;5.57;;;9.30;72.30;;;;;;5000259;28;20462;-82
2021/04/13 12:51:16;;;;;;;5.83;3.27;;;9.50;72.40;;;;;;5008204;28;20505;-81
2021/04/13 12:53:44;;;;;;;8.10;3.33;;;9.60;68.70;;;;;;5024501;28;20491;-82
2021/04/13 12:56:13;;;;;;;6.47;3.43;;;9.70;64.10;;;;;;5017756;28;20451;-83
2021/04/13 12:58:42;;;;;;;7.17;4.40;;;9.80;61.60;;;;;;5023315;28;20459;-86
2021/04/13 13:01:17;;;;;;;3.70;1.80;;;9.70;61.60;;;;;;5005757;28;20476;-81
2021/04/13 13:03:43;;;;;;;6.30;4.10;;;9.50;59.40;;;;;;5004596;28;20490;-85
2021/04/13 13:06:16;;;;;;;6.00;4.50;;;9.40;60.10;;;;;;5002750;28;21080;-87
2021/04/13 13:08:53;;;;;;;15.03;6.37;;;9.60;61.60;;;;;;5020263;28;20466;-85
2021/04/13 13:11:19;;;;;;;5.70;3.83;;;9.60;61.60;;;;;;5017853;28;20850;-85
2021/04/13 13:13:50;;;;;;;6.67;3.70;;;9.60;61.90;;;;;;5008675;28;20498;-85
2021/04/13 13:16:22;;;;;;;5.60;4.10;;;9.50;62.50;;;;;;5019220;28;20433;-84
2021/04/13 13:18:50;;;;;;;5.43;2.97;;;9.40;64.10;;;;;;5017861;28;20425;-84
2021/04/13 13:21:19;;;;;;;6.43;4.63;;;9.10;69.40;;;;;;5016398;28;20555;-81
2021/04/13 13:23:48;;;;;;;9.40;4.70;;;9.00;74.20;;;;;;5006360;28;20561;-84
2021/04/13 13:26:19;;;;;;;7.17;5.13;;;8.60;78.10;;;;;;5030527;28;20453;-82
2021/04/13 13:28:45;;;;;;;6.53;3.65;;;8.50;83.10;;;;;;5024850;28;20456;-83
2021/04/13 13:31:15;;;;;;;6.63;4.13;;;8.00;85.80;;;;;;4998877;28;20362;-84
2021/04/13 13:33:42;;;;;;;8.57;5.50;;;7.80;88.50;;;;;;5007939;28;20196;-82
2021/04/13 13:36:10;;;;;;;8.20;5.57;;;7.80;90.90;;;;;;5020896;28;20326;-83
2021/04/13 13:38:40;;;;;;;8.68;6.60;;;7.80;91.70;;;;;;5010251;28;20851;-84
2021/04/13 13:41:08;;;;;;;7.40;5.33;;;8.00;94.20;;;;;;5004575;28;20609;-83
2021/04/13 13:43:36;;;;;;;6.63;4.63;;;7.80;91.50;;;;;;5017039;28;20527;-84
2021/04/13 13:46:22;;;;;;;6.33;3.70;;;8.50;90.70;;;;;;5014600;28;20495;-80